createdAt,value
2019-04-01T00:00:52.692Z,960.29
2019-04-01T00:01:52.672Z,960.28
2019-04-01T00:02:52.657Z,960.27
2019-04-01T00:03:52.642Z,960.28
2019-04-01T00:04:52.625Z,960.23
2019-04-01T00:05:52.610Z,960.21
2019-04-01T00:06:52.593Z,960.21
2019-04-01T00:07:52.578Z,960.21
2019-04-01T00:08:52.563Z,960.2
2019-04-01T00:09:52.545Z,960.2
2019-04-01T00:10:52.529Z,960.23
2019-04-01T00:11:52.512Z,960.2
2019-04-01T00:12:52.495Z,960.22
2019-04-01T00:13:52.480Z,960.23
2019-04-01T00:14:52.463Z,960.21
2019-04-01T00:15:52.449Z,960.23
2019-04-01T00:16:52.432Z,960.21
2019-04-01T00:17:52.415Z,960.25
2019-04-01T00:19:02.695Z,960.26
2019-04-01T00:19:52.383Z,960.27
2019-04-01T00:20:52.366Z,960.24
2019-04-01T00:21:52.351Z,960.22
2019-04-01T00:22:52.472Z,960.26
2019-04-01T00:23:52.317Z,960.24
2019-04-01T00:24:52.301Z,960.29
2019-04-01T00:25:52.284Z,960.26
2019-04-01T00:26:52.268Z,960.26
2019-04-01T00:27:52.251Z,960.25
2019-04-01T00:28:52.236Z,960.25
2019-04-01T00:29:52.219Z,960.24
2019-04-01T00:30:52.201Z,960.28
2019-04-01T00:31:52.185Z,960.24
2019-04-01T00:32:52.170Z,960.26
2019-04-01T00:33:52.152Z,960.24
2019-04-01T00:34:52.136Z,960.28
2019-04-01T00:35:52.120Z,960.27
2019-04-01T00:36:52.106Z,960.27
2019-04-01T00:37:52.086Z,960.26
2019-04-01T00:38:52.069Z,960.27
2019-04-01T00:39:52.053Z,960.28
2019-04-01T00:40:52.037Z,960.28
2019-04-01T00:41:52.019Z,960.26
2019-04-01T00:42:52.004Z,960.24
2019-04-01T00:43:51.986Z,960.2
2019-04-01T00:44:51.969Z,960.21
2019-04-01T00:45:51.952Z,960.23
2019-04-01T00:46:51.935Z,960.19
2019-04-01T00:47:51.920Z,960.19
2019-04-01T00:48:51.902Z,960.23
2019-04-01T00:49:51.886Z,960.2
2019-04-01T00:50:51.869Z,960.2
2019-04-01T00:51:51.852Z,960.23
2019-04-01T00:52:51.835Z,960.21
2019-04-01T00:53:51.819Z,960.23
2019-04-01T00:54:51.802Z,960.23
2019-04-01T00:55:52.038Z,960.21
2019-04-01T00:56:51.768Z,960.24
2019-04-01T00:57:51.750Z,960.22
2019-04-01T00:58:51.735Z,960.24
2019-04-01T00:59:51.717Z,960.19
2019-04-01T01:00:51.699Z,960.21
2019-04-01T01:01:51.690Z,960.18
2019-04-01T01:02:51.667Z,960.18
2019-04-01T01:03:51.665Z,960.13
2019-04-01T01:04:51.632Z,960.16
2019-04-01T01:05:51.616Z,960.21
2019-04-01T01:06:51.600Z,960.15
2019-04-01T01:07:51.581Z,960.17
2019-04-01T01:08:51.565Z,960.19
2019-04-01T01:09:51.550Z,960.21
2019-04-01T01:10:51.531Z,960.19
2019-04-01T01:11:51.514Z,960.25
2019-04-01T01:12:51.496Z,960.24
2019-04-01T01:13:51.480Z,960.15
2019-04-01T01:14:51.466Z,960.14
2019-04-01T01:15:51.595Z,960.17
2019-04-01T01:16:51.433Z,960.13
2019-04-01T01:17:51.410Z,960.12
2019-04-01T01:18:51.393Z,960.19
2019-04-01T01:19:51.378Z,960.17
2019-04-01T01:20:51.359Z,960.16
2019-04-01T01:21:51.344Z,960.19
2019-04-01T01:22:51.326Z,960.19
2019-04-01T01:23:51.320Z,960.16
2019-04-01T01:24:51.290Z,960.16
2019-04-01T01:25:51.272Z,960.16
2019-04-01T01:26:51.256Z,960.22
2019-04-01T01:27:51.249Z,960.23
2019-04-01T01:28:51.221Z,960.22
2019-04-01T01:29:51.202Z,960.18
2019-04-01T01:30:51.187Z,960.17
2019-04-01T01:31:51.169Z,960.18
2019-04-01T01:32:51.153Z,960.18
2019-04-01T01:33:51.134Z,960.2
2019-04-01T01:34:51.116Z,960.22
2019-04-01T01:35:51.104Z,960.18
2019-04-01T01:36:51.082Z,960.18
2019-04-01T01:37:51.064Z,960.14
2019-04-01T01:38:51.048Z,960.14
2019-04-01T01:39:51.031Z,960.15
2019-04-01T01:40:51.013Z,960.12
2019-04-01T01:41:50.995Z,960.13
2019-04-01T01:42:50.980Z,960.15
2019-04-01T01:43:50.961Z,960.14
2019-04-01T01:44:50.944Z,960.17
2019-04-01T01:45:50.928Z,960.15
2019-04-01T01:46:50.911Z,960.16
2019-04-01T01:47:50.897Z,960.16
2019-04-01T01:48:50.876Z,960.18
2019-04-01T01:49:50.859Z,960.17
2019-04-01T01:50:50.842Z,960.17
2019-04-01T01:51:50.823Z,960.16
2019-04-01T01:52:50.809Z,960.17
2019-04-01T01:53:50.791Z,960.13
2019-04-01T01:54:50.775Z,960.17
2019-04-01T01:55:50.755Z,960.18
2019-04-01T01:56:50.738Z,960.14
2019-04-01T01:57:50.722Z,960.14
2019-04-01T01:58:50.706Z,960.18
2019-04-01T01:59:50.686Z,960.16
2019-04-01T02:00:50.673Z,960.17
2019-04-01T02:01:50.654Z,960.13
2019-04-01T02:02:50.635Z,960.14
2019-04-01T02:03:50.621Z,960.11
2019-04-01T02:04:50.602Z,960.18
2019-04-01T02:05:50.585Z,960.13
2019-04-01T02:06:50.568Z,960.14
2019-04-01T02:07:50.551Z,960.18
2019-04-01T02:08:50.534Z,960.17
2019-04-01T02:09:50.517Z,960.13
2019-04-01T02:10:50.501Z,960.15
2019-04-01T02:11:50.486Z,960.17
2019-04-01T02:12:50.468Z,960.19
2019-04-01T02:13:50.449Z,960.13
2019-04-01T02:14:50.432Z,960.11
2019-04-01T02:15:50.416Z,960.11
2019-04-01T02:16:50.398Z,960.12
2019-04-01T02:17:50.384Z,960.1
2019-04-01T02:18:50.367Z,960.11
2019-04-01T02:19:50.348Z,960.14
2019-04-01T02:20:50.332Z,960.12
2019-04-01T02:21:50.314Z,960.14
2019-04-01T02:22:50.297Z,960.13
2019-04-01T02:23:50.282Z,960.1
2019-04-01T02:24:50.267Z,960.04
2019-04-01T02:25:50.248Z,960.09
2019-04-01T02:26:50.230Z,960.03
2019-04-01T02:27:50.212Z,960.07
2019-04-01T02:28:50.197Z,960.04
2019-04-01T02:29:50.181Z,960.03
2019-04-01T02:30:50.166Z,960.06
2019-04-01T02:31:50.147Z,960.07
2019-04-01T02:32:50.130Z,960.13
2019-04-01T02:33:50.114Z,960.07
2019-04-01T02:34:50.097Z,960.09
2019-04-01T02:35:50.079Z,960.05
2019-04-01T02:36:50.064Z,960.05
2019-04-01T02:37:50.049Z,960.03
2019-04-01T02:38:50.039Z,960.03
2019-04-01T02:39:50.013Z,959.99
2019-04-01T02:40:50.002Z,959.98
2019-04-01T02:41:49.982Z,959.99
2019-04-01T02:42:49.964Z,959.96
2019-04-01T02:43:49.948Z,959.94
2019-04-01T02:44:49.931Z,959.91
2019-04-01T02:45:49.918Z,959.88
2019-04-01T02:46:49.898Z,959.88
2019-04-01T02:47:49.887Z,959.88
2019-04-01T02:48:49.865Z,959.87
2019-04-01T02:49:49.848Z,959.86
2019-04-01T02:50:49.832Z,959.88
2019-04-01T02:51:49.818Z,959.86
2019-04-01T02:52:49.807Z,959.79
2019-04-01T02:53:49.784Z,959.86
2019-04-01T02:54:49.767Z,959.86
2019-04-01T02:55:49.749Z,959.87
2019-04-01T02:56:49.733Z,959.82
2019-04-01T02:57:49.716Z,959.85
2019-04-01T02:58:49.713Z,959.83
2019-04-01T02:59:49.683Z,959.86
2019-04-01T03:00:49.666Z,959.83
2019-04-01T03:01:49.651Z,959.88
2019-04-01T03:02:49.633Z,959.87
2019-04-01T03:03:49.618Z,959.87
2019-04-01T03:04:49.601Z,959.86
2019-04-01T03:05:49.585Z,959.84
2019-04-01T03:06:49.572Z,959.82
2019-04-01T03:07:49.554Z,959.86
2019-04-01T03:08:49.538Z,959.92
2019-04-01T03:09:49.518Z,959.85
2019-04-01T03:10:49.502Z,959.86
2019-04-01T03:11:49.484Z,959.89
2019-04-01T03:12:49.478Z,959.88
2019-04-01T03:13:49.452Z,959.84
2019-04-01T03:14:49.437Z,959.88
2019-04-01T03:15:49.419Z,959.78
2019-04-01T03:16:49.402Z,959.81
2019-04-01T03:17:49.386Z,959.78
2019-04-01T03:18:49.371Z,959.83
2019-04-01T03:19:49.355Z,959.82
2019-04-01T03:20:49.337Z,959.8
2019-04-01T03:21:49.322Z,959.84
2019-04-01T03:22:49.305Z,959.84
2019-04-01T03:23:49.297Z,959.83
2019-04-01T03:24:49.271Z,959.84
2019-04-01T03:25:49.259Z,959.83
2019-04-01T03:26:49.238Z,959.83
2019-04-01T03:27:49.227Z,959.8
2019-04-01T03:28:49.208Z,959.85
2019-04-01T03:29:49.187Z,959.85
2019-04-01T03:30:49.171Z,959.87
2019-04-01T03:31:49.155Z,959.86
2019-04-01T03:32:49.139Z,959.84
2019-04-01T03:33:49.121Z,959.86
2019-04-01T03:34:49.143Z,959.84
2019-04-01T03:35:49.087Z,959.81
2019-04-01T03:36:49.188Z,959.78
2019-04-01T03:37:49.054Z,959.79
2019-04-01T03:38:49.048Z,959.85
2019-04-01T03:39:49.025Z,959.84
2019-04-01T03:40:49.004Z,959.89
2019-04-01T03:41:48.997Z,959.84
2019-04-01T03:42:48.969Z,959.9
2019-04-01T03:43:48.953Z,959.87
2019-04-01T03:44:48.937Z,959.88
2019-04-01T03:45:48.918Z,959.89
2019-04-01T03:46:48.904Z,959.82
2019-04-01T03:47:48.889Z,959.83
2019-04-01T03:48:48.869Z,959.87
2019-04-01T03:49:48.852Z,959.88
2019-04-01T03:50:48.836Z,959.84
2019-04-01T03:51:48.817Z,959.88
2019-04-01T03:52:48.802Z,959.88
2019-04-01T03:53:48.783Z,959.87
2019-04-01T03:54:48.768Z,959.89
2019-04-01T03:55:48.750Z,959.89
2019-04-01T03:56:48.734Z,959.89
2019-04-01T03:57:48.716Z,959.86
2019-04-01T03:58:48.702Z,959.88
2019-04-01T03:59:48.746Z,959.89
2019-04-01T04:00:48.666Z,959.85
2019-04-01T04:01:48.651Z,959.91
2019-04-01T04:02:48.632Z,959.82
2019-04-01T04:03:48.617Z,959.86
2019-04-01T04:04:48.598Z,959.86
2019-04-01T04:05:48.583Z,959.94
2019-04-01T04:06:48.565Z,959.92
2019-04-01T04:07:48.548Z,959.85
2019-04-01T04:08:48.532Z,959.91
2019-04-01T04:09:48.513Z,959.9
2019-04-01T04:10:48.496Z,959.92
2019-04-01T04:11:48.482Z,959.86
2019-04-01T04:12:48.461Z,959.84
2019-04-01T04:13:48.444Z,959.86
2019-04-01T04:14:50.984Z,959.85
2019-04-01T04:15:48.409Z,959.85
2019-04-01T04:16:48.393Z,959.85
2019-04-01T04:17:48.375Z,959.85
2019-04-01T04:18:48.359Z,959.87
2019-04-01T04:19:48.342Z,959.87
2019-04-01T04:20:48.327Z,959.85
2019-04-01T04:21:48.306Z,959.83
2019-04-01T04:22:48.295Z,959.84
2019-04-01T04:23:48.274Z,959.83
2019-04-01T04:24:48.253Z,959.87
2019-04-01T04:25:48.238Z,959.86
2019-04-01T04:26:48.220Z,959.89
2019-04-01T04:27:48.204Z,959.91
2019-04-01T04:28:48.184Z,959.91
2019-04-01T04:29:48.170Z,959.94
2019-04-01T04:30:48.154Z,959.92
2019-04-01T04:31:48.133Z,959.88
2019-04-01T04:32:48.120Z,959.88
2019-04-01T04:33:48.100Z,959.88
2019-04-01T04:34:48.085Z,959.88
2019-04-01T04:35:48.063Z,959.84
2019-04-01T04:36:48.046Z,959.88
2019-04-01T04:37:48.028Z,959.86
2019-04-01T04:38:48.015Z,959.82
2019-04-01T04:39:47.994Z,959.85
2019-04-01T04:40:47.978Z,959.83
2019-04-01T04:41:47.961Z,959.85
2019-04-01T04:42:47.942Z,959.87
2019-04-01T04:43:47.924Z,959.82
2019-04-01T04:44:47.908Z,959.89
2019-04-01T04:45:47.891Z,959.92
2019-04-01T04:46:47.871Z,959.94
2019-04-01T04:47:47.854Z,959.95
2019-04-01T04:48:47.837Z,959.93
2019-04-01T04:49:47.820Z,959.88
2019-04-01T04:50:47.802Z,959.9
2019-04-01T04:51:47.784Z,959.88
2019-04-01T04:52:47.768Z,959.91
2019-04-01T04:53:47.749Z,959.9
2019-04-01T04:54:47.733Z,959.89
2019-04-01T04:55:47.716Z,959.93
2019-04-01T04:56:47.698Z,959.91
2019-04-01T04:57:47.680Z,959.92
2019-04-01T04:58:47.663Z,959.92
2019-04-01T04:59:47.645Z,959.93
2019-04-01T05:00:47.628Z,959.91
2019-04-01T05:01:47.611Z,959.89
2019-04-01T05:02:47.594Z,959.91
2019-04-01T05:03:47.576Z,959.92
2019-04-01T05:04:47.558Z,959.89
2019-04-01T05:05:47.540Z,959.89
2019-04-01T05:06:47.523Z,959.91
2019-04-01T05:07:47.506Z,959.93
2019-04-01T05:08:47.490Z,959.96
2019-04-01T05:09:47.471Z,959.94
2019-04-01T05:10:47.455Z,959.97
2019-04-01T05:11:47.436Z,959.95
2019-04-01T05:12:47.421Z,960
2019-04-01T05:13:47.651Z,960
2019-04-01T05:14:47.383Z,959.97
2019-04-01T05:15:47.365Z,960.01
2019-04-01T05:16:47.349Z,959.98
2019-04-01T05:17:47.331Z,959.94
2019-04-01T05:18:47.313Z,959.99
2019-04-01T05:19:47.294Z,960
2019-04-01T05:20:47.281Z,960.03
2019-04-01T05:21:47.261Z,960
2019-04-01T05:22:47.244Z,960.01
2019-04-01T05:23:47.225Z,959.97
2019-04-01T05:24:47.208Z,959.97
2019-04-01T05:25:47.192Z,960.02
2019-04-01T05:26:47.171Z,960.06
2019-04-01T05:27:47.161Z,960.06
2019-04-01T05:28:47.137Z,960.08
2019-04-01T05:29:47.120Z,960.1
2019-04-01T05:30:47.102Z,960.07
2019-04-01T05:31:47.086Z,960.08
2019-04-01T05:32:47.070Z,960.07
2019-04-01T05:33:55.053Z,960.06
2019-04-01T05:34:47.032Z,960.09
2019-04-01T05:35:47.014Z,960.05
2019-04-01T05:36:46.999Z,960.07
2019-04-01T05:37:46.983Z,960.05
2019-04-01T05:38:46.962Z,960.03
2019-04-01T05:39:46.945Z,960.08
2019-04-01T05:40:46.928Z,960.1
2019-04-01T05:41:46.910Z,960.07
2019-04-01T05:42:46.891Z,960.12
2019-04-01T05:43:46.875Z,960.07
2019-04-01T05:44:46.857Z,960.07
2019-04-01T05:45:46.840Z,960.04
2019-04-01T05:46:46.823Z,960.04
2019-04-01T05:47:46.806Z,960.01
2019-04-01T05:48:46.787Z,960.04
2019-04-01T05:49:46.770Z,960.08
2019-04-01T05:50:46.752Z,960.04
2019-04-01T05:51:46.735Z,960.02
2019-04-01T05:52:46.720Z,960.04
2019-04-01T05:53:46.700Z,960.08
2019-04-01T05:54:46.683Z,960.05
2019-04-01T05:55:46.668Z,960.05
2019-04-01T05:56:46.649Z,960.04
2019-04-01T05:57:46.630Z,960.03
2019-04-01T05:58:46.619Z,960.02
2019-04-01T05:59:46.595Z,960.03
2019-04-01T06:00:46.580Z,960.06
2019-04-01T06:01:46.562Z,960.04
2019-04-01T06:02:46.544Z,960.06
2019-04-01T06:03:46.528Z,960.05
2019-04-01T06:04:46.514Z,960.05
2019-04-01T06:05:46.493Z,960.11
2019-04-01T06:06:48.764Z,960.05
2019-04-01T06:07:46.459Z,960.04
2019-04-01T06:08:46.441Z,960.03
2019-04-01T06:09:46.424Z,960.06
2019-04-01T06:10:46.406Z,960.02
2019-04-01T06:11:46.391Z,960.05
2019-04-01T06:12:46.374Z,960.01
2019-04-01T06:13:46.365Z,960.01
2019-04-01T06:14:46.339Z,960.04
2019-04-01T06:15:46.321Z,960.05
2019-04-01T06:16:46.304Z,960.04
2019-04-01T06:17:46.297Z,960.03
2019-04-01T06:18:46.270Z,960.03
2019-04-01T06:19:46.253Z,959.99
2019-04-01T06:20:46.237Z,960.01
2019-04-01T06:21:46.219Z,959.98
2019-04-01T06:22:46.203Z,960.08
2019-04-01T06:23:46.185Z,960.08
2019-04-01T06:24:46.169Z,960.07
2019-04-01T06:25:46.152Z,960.07
2019-04-01T06:26:46.136Z,960.1
2019-04-01T06:27:46.119Z,960.14
2019-04-01T06:28:46.104Z,960.13
2019-04-01T06:29:46.085Z,960.13
2019-04-01T06:30:46.070Z,960.07
2019-04-01T06:31:46.055Z,960.12
2019-04-01T06:32:46.035Z,960.13
2019-04-01T06:33:46.023Z,960.16
2019-04-01T06:34:52.509Z,960.17
2019-04-01T06:35:45.985Z,960.21
2019-04-01T06:36:45.969Z,960.17
2019-04-01T06:37:45.954Z,960.14
2019-04-01T06:38:45.935Z,960.18
2019-04-01T06:39:45.918Z,960.18
2019-04-01T06:40:45.902Z,960.21
2019-04-01T06:41:45.886Z,960.2
2019-04-01T06:42:45.934Z,960.21
2019-04-01T06:43:45.853Z,960.26
2019-04-01T06:44:45.837Z,960.25
2019-04-01T06:45:45.822Z,960.22
2019-04-01T06:46:45.806Z,960.2
2019-04-01T06:47:45.789Z,960.23
2019-04-01T06:48:45.775Z,960.19
2019-04-01T06:49:45.758Z,960.2
2019-04-01T06:50:45.741Z,960.18
2019-04-01T06:51:45.727Z,960.23
2019-04-01T06:52:45.712Z,960.24
2019-04-01T06:53:45.697Z,960.23
2019-04-01T06:54:45.680Z,960.18
2019-04-01T06:55:45.665Z,960.17
2019-04-01T06:56:45.651Z,960.14
2019-04-01T06:57:45.637Z,960.16
2019-04-01T06:58:45.622Z,960.14
2019-04-01T06:59:45.609Z,960.14
2019-04-01T07:00:45.593Z,960.19
2019-04-01T07:01:45.578Z,960.21
2019-04-01T07:02:45.564Z,960.19
2019-04-01T07:03:45.550Z,960.14
2019-04-01T07:04:45.536Z,960.18
2019-04-01T07:05:45.521Z,960.2
2019-04-01T07:06:45.508Z,960.19
2019-04-01T07:07:45.496Z,960.16
2019-04-01T07:08:45.481Z,960.13
2019-04-01T07:09:45.467Z,960.12
2019-04-01T07:10:45.455Z,960.12
2019-04-01T07:11:45.470Z,960.13
2019-04-01T07:12:45.427Z,960.11
2019-04-01T07:13:45.416Z,960.09
2019-04-01T07:14:45.474Z,960.11
2019-04-01T07:15:45.389Z,960.1
2019-04-01T07:16:45.377Z,960.02
2019-04-01T07:17:45.364Z,960.04
2019-04-01T07:18:45.350Z,960.04
2019-04-01T07:19:45.338Z,960.01
2019-04-01T07:20:45.324Z,959.99
2019-04-01T07:21:45.312Z,960
2019-04-01T07:22:45.301Z,960.04
2019-04-01T07:23:45.286Z,960.03
2019-04-01T07:24:45.273Z,959.99
2019-04-01T07:25:45.263Z,960.04
2019-04-01T07:26:45.249Z,960.03
2019-04-01T07:27:45.236Z,960.01
2019-04-01T07:28:45.224Z,959.95
2019-04-01T07:29:45.211Z,960.01
2019-04-01T07:30:45.200Z,959.97
2019-04-01T07:31:45.185Z,959.95
2019-04-01T07:32:45.175Z,959.96
2019-04-01T07:33:45.162Z,959.99
2019-04-01T07:34:45.148Z,960.02
2019-04-01T07:35:46.706Z,960.01
2019-04-01T07:36:45.125Z,960.04
2019-04-01T07:37:45.112Z,960.01
2019-04-01T07:38:45.098Z,960.03
2019-04-01T07:39:45.088Z,960.08
2019-04-01T07:40:45.075Z,960.1
2019-04-01T07:41:45.062Z,960.06
2019-04-01T07:42:45.049Z,960.04
2019-04-01T07:43:45.116Z,960.05
2019-04-01T07:44:45.026Z,960.06
2019-04-01T07:45:45.012Z,960.06
2019-04-01T07:46:45.000Z,960.07
2019-04-01T07:47:44.989Z,960.08
2019-04-01T07:48:44.977Z,960.1
2019-04-01T07:49:44.990Z,960.09
2019-04-01T07:50:44.997Z,960.08
2019-04-01T07:51:44.942Z,960.09
2019-04-01T07:52:44.930Z,960.05
2019-04-01T07:53:44.917Z,960.05
2019-04-01T07:54:44.907Z,960.05
2019-04-01T07:55:44.897Z,960.07
2019-04-01T07:56:44.883Z,960.07
2019-04-01T07:57:44.870Z,960.08
2019-04-01T07:58:44.859Z,960.07
2019-04-01T07:59:44.852Z,960.12
2019-04-01T08:00:44.834Z,960.08
2019-04-01T08:01:44.826Z,960.1
2019-04-01T08:02:44.811Z,960.12
2019-04-01T08:03:44.801Z,960.09
2019-04-01T08:04:44.792Z,960.11
2019-04-01T08:05:44.778Z,960.14
2019-04-01T08:06:44.766Z,960.13
2019-04-01T08:07:44.756Z,960.15
2019-04-01T08:08:46.313Z,960.1
2019-04-01T08:09:44.731Z,960.11
2019-04-01T08:10:44.727Z,960.09
2019-04-01T08:11:44.708Z,960.06
2019-04-01T08:12:44.697Z,960.06
2019-04-01T08:13:44.687Z,960.07
2019-04-01T08:14:44.674Z,960.02
2019-04-01T08:15:44.665Z,960.03
2019-04-01T08:16:44.652Z,960.04
2019-04-01T08:17:44.641Z,960.06
2019-04-01T08:18:44.631Z,960.03
2019-04-01T08:19:44.618Z,960.05
2019-04-01T08:20:44.607Z,959.99
2019-04-01T08:21:44.595Z,960
2019-04-01T08:22:44.585Z,960.01
2019-04-01T08:23:44.574Z,960.03
2019-04-01T08:24:44.562Z,960.06
2019-04-01T08:25:47.733Z,960.02
2019-04-01T08:26:44.538Z,960.02
2019-04-01T08:27:44.528Z,960.01
2019-04-01T08:28:44.517Z,960
2019-04-01T08:29:44.506Z,959.94
2019-04-01T08:30:44.494Z,959.96
2019-04-01T08:31:44.484Z,960
2019-04-01T08:32:44.471Z,959.94
2019-04-01T08:33:44.461Z,959.94
2019-04-01T08:34:44.457Z,959.94
2019-04-01T08:35:44.439Z,959.95
2019-04-01T08:36:44.426Z,959.98
2019-04-01T08:37:44.418Z,960.01
2019-04-01T08:38:44.405Z,959.99
2019-04-01T08:39:44.394Z,959.97
2019-04-01T08:40:44.383Z,959.97
2019-04-01T08:41:44.371Z,960
2019-04-01T08:42:44.361Z,959.97
2019-04-01T08:43:44.351Z,959.98
2019-04-01T08:44:44.339Z,959.99
2019-04-01T08:45:44.329Z,959.99
2019-04-01T08:46:44.324Z,959.99
2019-04-01T08:47:44.306Z,959.96
2019-04-01T08:48:44.296Z,960
2019-04-01T08:49:44.286Z,960.04
2019-04-01T08:50:44.275Z,960.02
2019-04-01T08:51:44.266Z,960.02
2019-04-01T08:52:44.254Z,960.07
2019-04-01T08:53:44.242Z,960.06
2019-04-01T08:54:44.232Z,960.07
2019-04-01T08:55:44.221Z,960.03
2019-04-01T08:56:44.217Z,960.03
2019-04-01T08:57:44.200Z,960.05
2019-04-01T08:58:44.189Z,960.02
2019-04-01T08:59:44.188Z,960.01
2019-04-01T09:00:44.169Z,959.98
2019-04-01T09:01:44.158Z,959.98
2019-04-01T09:02:44.147Z,959.98
2019-04-01T09:03:44.137Z,960.02
2019-04-01T09:04:44.127Z,960.02
2019-04-01T09:05:44.134Z,960.02
2019-04-01T09:06:44.106Z,959.96
2019-04-01T09:07:44.095Z,960.03
2019-04-01T09:08:44.085Z,959.95
2019-04-01T09:09:44.073Z,959.94
2019-04-01T09:10:44.065Z,959.95
2019-04-01T09:11:44.054Z,959.9
2019-04-01T09:12:44.045Z,959.88
2019-04-01T09:13:44.068Z,959.89
2019-04-01T09:14:44.023Z,959.86
2019-04-01T09:15:44.019Z,959.88
2019-04-01T09:16:44.005Z,959.85
2019-04-01T09:17:43.992Z,959.86
2019-04-01T09:18:43.982Z,959.85
2019-04-01T09:19:43.974Z,959.89
2019-04-01T09:20:43.962Z,959.92
2019-04-01T09:21:43.952Z,959.91
2019-04-01T09:22:43.943Z,959.91
2019-04-01T09:23:43.934Z,959.86
2019-04-01T09:24:43.928Z,959.84
2019-04-01T09:25:43.912Z,959.84
2019-04-01T09:26:43.903Z,959.86
2019-04-01T09:27:43.893Z,959.88
2019-04-01T09:28:43.883Z,959.9
2019-04-01T09:29:43.874Z,959.85
2019-04-01T09:30:43.862Z,959.85
2019-04-01T09:31:43.854Z,959.86
2019-04-01T09:32:43.843Z,959.86
2019-04-01T09:33:43.832Z,959.85
2019-04-01T09:34:43.824Z,959.88
2019-04-01T09:35:43.812Z,959.87
2019-04-01T09:36:43.803Z,959.8
2019-04-01T09:37:43.793Z,959.83
2019-04-01T09:38:43.782Z,959.8
2019-04-01T09:39:43.773Z,959.77
2019-04-01T09:40:43.764Z,959.8
2019-04-01T09:41:43.759Z,959.81
2019-04-01T09:42:43.789Z,959.77
2019-04-01T09:43:43.734Z,959.83
2019-04-01T09:44:43.724Z,959.81
2019-04-01T09:45:43.714Z,959.77
2019-04-01T09:46:43.705Z,959.79
2019-04-01T09:47:43.696Z,959.82
2019-04-01T09:48:43.685Z,959.79
2019-04-01T09:49:43.675Z,959.85
2019-04-01T09:50:43.665Z,959.79
2019-04-01T09:51:48.678Z,959.79
2019-04-01T09:52:43.646Z,959.78
2019-04-01T09:53:43.636Z,959.75
2019-04-01T09:54:43.627Z,959.8
2019-04-01T09:55:43.617Z,959.74
2019-04-01T09:56:43.608Z,959.71
2019-04-01T09:57:43.598Z,959.77
2019-04-01T09:58:43.646Z,959.73
2019-04-01T09:59:43.579Z,959.72
2019-04-01T10:00:43.568Z,959.72
2019-04-01T10:01:43.560Z,959.69
2019-04-01T10:02:43.552Z,959.68
2019-04-01T10:03:43.542Z,959.67
2019-04-01T10:04:43.530Z,959.68
2019-04-01T10:05:43.521Z,959.64
2019-04-01T10:06:43.512Z,959.65
2019-04-01T10:07:43.633Z,959.64
2019-04-01T10:08:43.494Z,959.61
2019-04-01T10:09:43.484Z,959.66
2019-04-01T10:10:43.475Z,959.62
2019-04-01T10:11:43.466Z,959.6
2019-04-01T10:12:43.455Z,959.57
2019-04-01T10:13:43.448Z,959.59
2019-04-01T10:14:43.437Z,959.58
2019-04-01T10:15:43.428Z,959.55
2019-04-01T10:16:43.420Z,959.57
2019-04-01T10:17:43.411Z,959.59
2019-04-01T10:18:43.404Z,959.63
2019-04-01T10:19:43.392Z,959.59
2019-04-01T10:20:43.385Z,959.57
2019-04-01T10:21:45.189Z,959.54
2019-04-01T10:22:43.385Z,959.57
2019-04-01T10:23:43.356Z,959.54
2019-04-01T10:24:43.348Z,959.53
2019-04-01T10:25:43.340Z,959.5
2019-04-01T10:26:43.335Z,959.53
2019-04-01T10:27:43.323Z,959.52
2019-04-01T10:28:43.315Z,959.51
2019-04-01T10:29:43.308Z,959.49
2019-04-01T10:30:43.298Z,959.51
2019-04-01T10:31:43.288Z,959.45
2019-04-01T10:32:43.286Z,959.47
2019-04-01T10:33:43.272Z,959.49
2019-04-01T10:34:43.267Z,959.43
2019-04-01T10:35:43.255Z,959.44
2019-04-01T10:36:43.249Z,959.42
2019-04-01T10:37:43.240Z,959.45
2019-04-01T10:38:46.454Z,959.42
2019-04-01T10:39:43.222Z,959.43
2019-04-01T10:40:43.215Z,959.38
2019-04-01T10:41:43.206Z,959.38
2019-04-01T10:42:43.199Z,959.34
2019-04-01T10:43:43.198Z,959.32
2019-04-01T10:44:43.182Z,959.36
2019-04-01T10:45:43.178Z,959.35
2019-04-01T10:46:43.190Z,959.36
2019-04-01T10:47:43.185Z,959.32
2019-04-01T10:48:43.223Z,959.35
2019-04-01T10:49:43.197Z,959.39
2019-04-01T10:50:43.164Z,959.36
2019-04-01T10:51:43.220Z,959.3
2019-04-01T10:52:44.111Z,959.3
2019-04-01T10:53:43.115Z,959.3
2019-04-01T10:54:43.193Z,959.35
2019-04-01T10:55:43.124Z,959.36
2019-04-01T10:56:43.142Z,959.29
2019-04-01T10:57:43.568Z,959.31
2019-04-01T10:58:43.079Z,959.24
2019-04-01T10:59:43.084Z,959.28
2019-04-01T11:00:43.077Z,959.29
2019-04-01T11:01:43.093Z,959.3
2019-04-01T11:02:43.062Z,959.26
2019-04-01T11:03:43.192Z,959.28
2019-04-01T11:04:43.031Z,959.28
2019-04-01T11:05:43.028Z,959.28
2019-04-01T11:06:43.092Z,959.29
2019-04-01T11:07:43.109Z,959.27
2019-04-01T11:08:43.037Z,959.25
2019-04-01T11:09:42.997Z,959.23
2019-04-01T11:10:42.988Z,959.22
2019-04-01T11:11:42.982Z,959.24
2019-04-01T11:12:42.974Z,959.26
2019-04-01T11:13:42.968Z,959.21
2019-04-01T11:14:42.962Z,959.22
2019-04-01T11:15:42.954Z,959.19
2019-04-01T11:16:42.949Z,959.19
2019-04-01T11:17:43.830Z,959.2
2019-04-01T11:18:42.937Z,959.18
2019-04-01T11:19:42.976Z,959.15
2019-04-01T11:20:42.921Z,959.17
2019-04-01T11:21:42.912Z,959.14
2019-04-01T11:22:42.904Z,959.21
2019-04-01T11:23:42.913Z,959.18
2019-04-01T11:24:42.918Z,959.15
2019-04-01T11:25:42.889Z,959.16
2019-04-01T11:26:42.875Z,959.14
2019-04-01T11:27:42.868Z,959.09
2019-04-01T11:28:42.859Z,959.08
2019-04-01T11:29:42.853Z,959.13
2019-04-01T11:30:42.850Z,959.13
2019-04-01T11:31:42.869Z,959.06
2019-04-01T11:32:42.875Z,959.08
2019-04-01T11:33:42.883Z,959.07
2019-04-01T11:34:42.897Z,959.1
2019-04-01T11:35:42.837Z,959.02
2019-04-01T11:36:43.227Z,959.01
2019-04-01T11:37:42.836Z,959
2019-04-01T11:38:43.071Z,959.03
2019-04-01T11:39:42.778Z,958.98
2019-04-01T11:40:43.814Z,958.98
2019-04-01T11:41:42.762Z,958.98
2019-04-01T11:42:42.772Z,959.01
2019-04-01T11:43:42.748Z,958.94
2019-04-01T11:44:42.741Z,958.96
2019-04-01T11:45:42.762Z,958.92
2019-04-01T11:46:42.730Z,958.9
2019-04-01T11:47:42.765Z,958.89
2019-04-01T11:48:42.745Z,958.86
2019-04-01T11:49:42.751Z,958.86
2019-04-01T11:50:42.720Z,958.84
2019-04-01T11:51:42.711Z,958.82
2019-04-01T11:52:42.716Z,958.79
2019-04-01T11:53:42.673Z,958.8
2019-04-01T11:54:42.666Z,958.74
2019-04-01T11:55:42.658Z,958.71
2019-04-01T11:56:42.651Z,958.75
2019-04-01T11:57:42.644Z,958.73
2019-04-01T11:58:42.637Z,958.7
2019-04-01T11:59:42.630Z,958.66
2019-04-01T12:00:42.626Z,958.7
2019-04-01T12:01:42.616Z,958.67
2019-04-01T12:02:42.616Z,958.65
2019-04-01T12:03:42.604Z,958.62
2019-04-01T12:04:42.595Z,958.61
2019-04-01T12:05:42.589Z,958.59
2019-04-01T12:06:42.582Z,958.57
2019-04-01T12:07:42.573Z,958.58
2019-04-01T12:08:42.565Z,958.56
2019-04-01T12:09:42.562Z,958.53
2019-04-01T12:10:42.551Z,958.53
2019-04-01T12:11:42.545Z,958.48
2019-04-01T12:12:42.537Z,958.49
2019-04-01T12:13:42.532Z,958.44
2019-04-01T12:14:42.523Z,958.45
2019-04-01T12:15:42.516Z,958.4
2019-04-01T12:16:42.508Z,958.43
2019-04-01T12:17:42.516Z,958.4
2019-04-01T12:18:42.492Z,958.38
2019-04-01T12:19:42.485Z,958.38
2019-04-01T12:20:42.477Z,958.33
2019-04-01T12:21:42.469Z,958.34
2019-04-01T12:22:45.584Z,958.35
2019-04-01T12:23:42.456Z,958.35
2019-04-01T12:24:42.446Z,958.35
2019-04-01T12:25:42.440Z,958.33
2019-04-01T12:26:42.431Z,958.32
2019-04-01T12:27:42.426Z,958.32
2019-04-01T12:28:42.690Z,958.3
2019-04-01T12:29:42.411Z,958.33
2019-04-01T12:30:42.400Z,958.3
2019-04-01T12:31:42.391Z,958.27